2019/09/23 06:50 EDVE 230650Z VRB03KT CAVOK 12/07 Q1011